Time;durP1;ratioP1;P1;durP2;ratioP2;P2;SDS_P1;SDS_P2;PMS_P1;PMS_P2;Temp;Humidity;BMP_temperature;BMP_pressure;BME280_temperature;BME280_humidity;BME280_pressure;Samples;Min_cycle;Max_cycle;Signal;HPM_P1;HPM_P2
2024/02/23 00:00:25;;;;;;;63.28;40.95;;;;;;;29.05;80.71;101228.38;5057453;28;66249;-31
2024/02/23 00:02:57;;;;;;;65.20;41.45;;;;;;;29.12;79.32;101245.47;5052662;28;70368;-31
2024/02/23 00:05:28;;;;;;;61.13;37.40;;;;;;;29.13;80.71;101239.03;5041361;28;65788;-30
2024/02/23 00:07:58;;;;;;;58.35;34.33;;;;;;;29.16;82.71;101246.72;5041417;28;71251;-30
2024/02/23 00:10:30;;;;;;;60.63;31.13;;;;;;;29.20;81.40;101258.81;5052123;28;66220;-31
2024/02/23 00:13:00;;;;;;;49.58;30.88;;;;;;;29.24;81.57;101260.06;5049146;28;70365;-32
2024/02/23 00:15:31;;;;;;;42.55;27.35;;;;;;;29.23;82.09;101257.56;5042926;28;67214;-31
2024/02/23 00:18:03;;;;;;;38.58;25.05;;;;;;;29.29;82.67;101267.56;5058573;28;70470;-30
2024/02/23 00:20:34;;;;;;;;;;;;;;;29.26;86.67;101274.22;5042759;28;66401;-32
2024/02/23 00:23:04;;;;;;;33.55;22.33;;;;;;;29.31;83.21;101266.34;5048061;28;69334;-30
2024/02/23 00:25:35;;;;;;;33.92;22.05;;;;;;;29.34;83.77;101275.91;5046135;28;65759;-31
2024/02/23 00:28:06;;;;;;;30.00;20.70;;;;;;;29.40;84.88;101278.66;5049932;28;70448;-31
2024/02/23 00:30:36;;;;;;;30.67;19.65;;;;;;;29.45;84.72;101282.59;5050550;28;65754;-32
2024/02/23 00:33:07;;;;;;;26.92;18.88;;;;;;;29.37;84.15;101270.94;5043749;28;70187;-31
2024/02/23 00:35:37;;;;;;;26.17;18.45;;;;;;;29.50;85.70;101280.13;5043614;28;66165;-33
2024/02/23 00:38:07;;;;;;;21.70;16.63;;;;;;;29.55;86.61;101291.19;5050826;28;70794;-31
2024/02/23 00:40:38;;;;;;;28.67;15.48;;;;;;;29.57;84.49;101291.81;5059605;28;65894;-32
2024/02/23 00:43:08;;;;;;;22.35;15.10;;;;;;;29.59;85.97;101298.69;5057110;28;69240;-30
2024/02/23 00:45:39;;;;;;;24.52;14.50;;;;;;;29.62;84.25;101300.16;5057032;28;66427;-32
2024/02/23 00:48:09;;;;;;;31.10;14.85;;;;;;;29.63;85.93;101301.84;5052825;28;70504;-31
2024/02/23 00:50:40;;;;;;;22.17;12.85;;;;;;;29.62;85.49;101300.16;5049009;28;66183;-31
2024/02/23 00:53:10;;;;;;;20.05;12.38;;;;;;;29.66;85.33;101306.84;5055331;28;70604;-31
2024/02/23 00:55:41;;;;;;;13.90;11.73;;;;;;;29.70;83.98;101297.31;5059040;28;66245;-32
2024/02/23 00:58:12;;;;;;;19.48;12.30;;;;;;;29.74;84.06;101300.44;5040899;28;70448;-31
2024/02/23 01:00:43;;;;;;;19.17;11.65;;;;;;;29.76;83.23;101307.31;5044632;28;66797;-32
2024/02/23 01:03:13;;;;;;;18.10;11.43;;;;;;;29.78;82.88;101309.81;5041700;28;69940;-31
2024/02/23 01:05:44;;;;;;;19.40;10.68;;;;;;;29.79;83.16;101300.66;5041984;28;66505;-30
2024/02/23 01:08:14;;;;;;;13.05;10.45;;;;;;;29.77;82.67;101298.16;5039466;28;69978;-32
2024/02/23 01:10:45;;;;;;;15.30;10.32;;;;;;;29.82;82.42;101309.19;5048357;28;66167;-31
2024/02/23 01:13:16;;;;;;;11.90;10.80;;;;;;;29.83;82.37;101316.25;5054182;28;70469;-31
2024/02/23 01:15:47;;;;;;;14.70;10.73;;;;;;;29.89;82.14;101316.50;5050518;28;65846;-31
2024/02/23 01:18:17;;;;;;;16.08;10.40;;;;;;;29.90;81.82;101323.59;5044636;28;70638;-30
2024/02/23 01:20:48;;;;;;;17.75;10.45;;;;;;;29.90;81.50;101318.19;5053779;28;66694;-31
2024/02/23 01:23:18;;;;;;;14.48;11.02;;;;;;;29.91;81.38;101331.50;5055063;28;70451;-31
2024/02/23 01:25:49;;;;;;;13.23;9.55;;;;;;;29.92;81.79;101326.91;5043853;28;66425;-31
2024/02/23 01:28:19;;;;;;;10.25;9.30;;;;;;;29.94;81.57;101335.66;5038017;28;70284;-32
2024/02/23 01:30:50;;;;;;;13.00;9.48;;;;;;;29.97;81.26;101337.97;5054565;28;65473;-31
2024/02/23 01:33:21;;;;;;;13.77;9.75;;;;;;;29.96;81.04;101333.59;5049610;28;70295;-31
2024/02/23 01:35:51;;;;;;;10.52;8.77;;;;;;;29.98;80.91;101337.75;5052007;28;66664;-30
2024/02/23 01:38:23;;;;;;;9.95;9.00;;;;;;;30.00;81.05;101342.97;5057314;28;70556;-30
2024/02/23 01:40:56;;;;;;;10.20;9.27;;;;;;;30.03;80.75;101345.25;5054555;28;65624;-30
2024/02/23 01:43:27;;;;;;;9.45;8.48;;;;;;;30.03;80.60;101346.13;5045906;28;70560;-30
2024/02/23 01:45:58;;;;;;;13.68;8.65;;;;;;;30.02;80.68;101351.72;5045961;28;66356;-31
2024/02/23 01:48:28;;;;;;;12.98;8.77;;;;;;;30.06;80.12;101361.94;5046922;28;70278;-31
2024/02/23 01:50:59;;;;;;;12.57;8.57;;;;;;;30.07;79.97;101351.94;5047178;28;65487;-30
2024/02/23 01:53:30;;;;;;;10.18;9.05;;;;;;;30.09;80.39;101357.13;5053374;28;70386;-30
2024/02/23 01:56:01;;;;;;;8.80;7.88;;;;;;;30.06;79.76;101344.84;5056678;28;65859;-30
2024/02/23 01:58:35;;;;;;;9.02;8.32;;;;;;;30.01;80.05;101342.75;5039752;28;70608;-30
2024/02/23 02:01:05;;;;;;;11.60;7.85;;;;;;;30.14;80.08;101363.59;5051575;27;66667;-30
2024/02/23 02:03:39;;;;;;;10.68;8.07;;;;;;;30.08;80.19;101342.78;5050116;28;70246;-30
2024/02/23 02:06:11;;;;;;;9.65;8.05;;;;;;;30.18;79.65;101373.00;5060748;28;66861;-33
2024/02/23 02:08:42;;;;;;;10.48;8.63;;;;;;;30.19;79.54;101371.09;5052868;28;70162;-31
2024/02/23 02:11:13;;;;;;;9.13;8.02;;;;;;;30.21;79.29;101380.69;5052235;28;65968;-29
2024/02/23 02:13:43;;;;;;;9.60;7.55;;;;;;;30.23;79.15;101373.25;5048681;28;69994;-36
2024/02/23 02:16:14;;;;;;;9.82;8.85;;;;;;;30.22;79.37;101376.97;5056433;28;66461;-33
2024/02/23 02:18:45;;;;;;;8.60;7.78;;;;;;;30.25;79.54;101370.31;5053340;28;69677;-31
2024/02/23 02:21:16;;;;;;;11.20;7.82;;;;;;;30.30;79.54;101372.44;5057303;28;66154;-31
2024/02/23 02:23:46;;;;;;;7.63;6.93;;;;;;;30.28;79.20;101376.19;5061831;28;70404;-32
2024/02/23 02:26:17;;;;;;;9.00;7.30;;;;;;;30.33;78.88;101374.72;5052464;28;65643;-32
2024/02/23 02:28:47;;;;;;;8.65;7.78;;;;;;;30.36;79.05;101377.00;5061704;28;69641;-30
2024/02/23 02:31:18;;;;;;;8.35;7.53;;;;;;;30.34;79.11;101374.53;5072340;28;66075;-31
2024/02/23 02:33:48;;;;;;;8.25;6.93;;;;;;;30.39;78.92;101382.84;5055252;28;70710;-31
2024/02/23 02:36:19;;;;;;;7.70;7.00;;;;;;;30.43;78.74;101383.28;5046568;28;66484;-29
2024/02/23 02:38:49;;;;;;;8.85;7.60;;;;;;;30.45;78.64;101375.78;5047711;28;69561;-31
2024/02/23 02:41:20;;;;;;;8.45;7.00;;;;;;;30.46;78.51;101377.47;5064615;28;66361;-31
2024/02/23 02:43:51;;;;;;;8.57;6.60;;;;;;;30.49;78.40;101372.47;5047196;28;69091;-31
2024/02/23 02:46:21;;;;;;;7.55;6.97;;;;;;;30.53;78.66;101381.00;5042488;28;66552;-31
2024/02/23 02:48:52;;;;;;;7.22;6.63;;;;;;;30.56;78.52;101377.88;5040014;28;70031;-30
2024/02/23 02:51:22;;;;;;;7.15;6.47;;;;;;;30.55;78.04;101369.97;5069636;28;66649;-31
2024/02/23 02:53:53;;;;;;;8.73;6.45;;;;;;;30.60;77.99;101373.72;5055437;28;70165;-32
2024/02/23 02:56:23;;;;;;;6.28;5.78;;;;;;;30.63;77.80;101376.00;5055915;28;67073;-32
2024/02/23 02:58:54;;;;;;;6.80;6.28;;;;;;;30.61;77.88;101363.72;5060324;28;70434;-30
2024/02/23 03:01:24;;;;;;;6.80;6.30;;;;;;;30.65;77.60;101365.81;5039951;28;65899;-30
2024/02/23 03:03:55;;;;;;;6.53;6.05;;;;;;;30.70;77.58;101368.75;5047408;28;70848;-30
2024/02/23 03:06:25;;;;;;;6.50;6.00;;;;;;;30.76;77.73;101371.63;5042140;28;66123;-32
2024/02/23 03:08:56;;;;;;;7.57;6.35;;;;;;;30.78;77.91;101372.28;5056389;28;70012;-31
2024/02/23 03:11:27;;;;;;;6.65;6.05;;;;;;;30.80;77.71;101359.41;5042526;28;67725;-30
2024/02/23 03:13:58;;;;;;;6.72;6.00;;;;;;;30.84;77.23;101368.75;5053247;28;70461;-30
2024/02/23 03:16:30;;;;;;;6.13;5.53;;;;;;;30.88;77.31;101365.44;5041063;28;66197;-31
2024/02/23 03:19:01;;;;;;;6.90;6.05;;;;;;;30.88;77.04;101360.00;5041632;28;69665;-31
2024/02/23 03:21:31;;;;;;;9.45;6.10;;;;;;;30.90;77.34;101351.69;5046166;28;65385;-30
2024/02/23 03:24:04;;;;;;;6.95;6.25;;;;;;;30.97;76.83;101354.38;5040929;28;70375;-31
2024/02/23 03:26:35;;;;;;;5.80;5.30;;;;;;;30.99;77.20;101350.44;5048654;28;65280;-34
2024/02/23 03:29:05;;;;;;;6.32;5.72;;;;;;;30.93;76.91;101335.00;5045797;28;69168;-31
2024/02/23 03:31:36;;;;;;;8.55;6.65;;;;;;;31.05;76.55;101349.56;5043819;28;67383;-30
2024/02/23 03:34:06;;;;;;;6.80;5.78;;;;;;;31.06;76.99;101334.97;5050914;28;69824;-32
2024/02/23 03:36:37;;;;;;;5.90;5.45;;;;;;;31.10;76.55;101336.22;5048501;28;66183;-31
2024/02/23 03:39:07;;;;;;;7.53;6.28;;;;;;;31.13;76.32;101335.81;5054934;28;69564;-32
2024/02/23 03:41:38;;;;;;;6.78;6.18;;;;;;;31.11;76.48;101321.63;5047087;28;65946;-33
2024/02/23 03:44:08;;;;;;;6.35;5.85;;;;;;;31.21;76.39;101320.38;5050508;28;70417;-33
2024/02/23 03:46:39;;;;;;;6.25;5.65;;;;;;;31.22;75.87;101322.88;5046093;28;65489;-31
2024/02/23 03:49:09;;;;;;;7.05;6.10;;;;;;;31.22;75.95;101305.78;5048234;28;69097;-30
2024/02/23 03:51:40;;;;;;;6.60;5.70;;;;;;;31.28;75.97;101310.34;5055779;28;65388;-32
2024/02/23 03:54:10;;;;;;;5.70;5.20;;;;;;;31.30;76.07;101298.25;5058739;28;70384;-35
2024/02/23 03:56:42;;;;;;;5.75;5.25;;;;;;;31.34;75.87;101298.63;5060543;28;66136;-32
2024/02/23 03:59:14;;;;;;;5.47;5.13;;;;;;;31.35;75.65;101292.19;5051464;28;70663;-34
2024/02/23 04:01:45;;;;;;;5.88;5.28;;;;;;;31.39;75.93;101285.31;5047688;28;66786;-33
2024/02/23 04:04:16;;;;;;;5.90;5.50;;;;;;;31.42;75.60;101292.19;5055354;28;70726;-30
2024/02/23 04:06:46;;;;;;;7.40;5.55;;;;;;;31.43;75.78;101281.13;5056775;28;66200;-30
2024/02/23 04:09:17;;;;;;;5.70;5.30;;;;;;;31.45;75.38;101270.88;5057545;28;68769;-31
2024/02/23 04:11:48;;;;;;;5.27;4.77;;;;;;;31.48;75.36;101272.34;5049252;28;66142;-31
2024/02/23 04:14:19;;;;;;;5.95;5.40;;;;;;;31.53;75.55;101281.50;5056787;28;70511;-30
2024/02/23 04:16:49;;;;;;;5.82;5.38;;;;;;;31.53;75.04;101270.66;5053041;28;66598;-33
2024/02/23 04:19:20;;;;;;;5.57;5.18;;;;;;;31.53;75.22;101265.22;5053916;28;70143;-31
2024/02/23 04:21:50;;;;;;;6.45;5.85;;;;;;;31.57;75.20;101265.66;5053148;28;66318;-31
2024/02/23 04:24:21;;;;;;;6.22;5.63;;;;;;;31.60;74.85;101260.63;5055074;28;70119;-31
2024/02/23 04:26:55;;;;;;;6.68;5.38;;;;;;;31.64;74.96;101250.16;5058969;28;66389;-31
2024/02/23 04:29:25;;;;;;;6.53;5.28;;;;;;;31.63;74.76;101242.25;5057152;27;70520;-31
2024/02/23 04:31:56;;;;;;;5.35;4.95;;;;;;;31.70;74.68;101245.75;5046701;28;66434;-31
2024/02/23 04:34:26;;;;;;;5.82;5.43;;;;;;;31.69;74.43;101241.38;5052756;28;69706;-32
2024/02/23 04:36:57;;;;;;;5.68;5.28;;;;;;;31.77;74.31;101238.41;5047746;28;65615;-31
2024/02/23 04:39:27;;;;;;;5.63;5.13;;;;;;;31.79;74.47;101236.31;5058452;28;70468;-32
2024/02/23 04:41:58;;;;;;;5.85;4.53;;;;;;;31.77;74.45;101222.16;5039317;28;67251;-32
2024/02/23 04:44:28;;;;;;;7.20;4.75;;;;;;;31.86;74.33;101228.13;5060934;28;70252;-30
2024/02/23 04:46:59;;;;;;;6.55;5.43;;;;;;;31.89;74.10;101224.97;5049793;28;65476;-30
2024/02/23 04:49:29;;;;;;;7.32;5.00;;;;;;;31.90;74.34;101215.78;5042450;28;70195;-32
2024/02/23 04:52:00;;;;;;;5.15;4.70;;;;;;;31.90;74.02;101205.78;5038244;28;66324;-32
2024/02/23 04:54:30;;;;;;;5.35;4.90;;;;;;;31.95;73.80;101208.66;5039721;28;69894;-30
2024/02/23 04:57:01;;;;;;;5.85;5.35;;;;;;;31.99;74.03;101209.09;5051925;28;66541;-32
2024/02/23 04:59:32;;;;;;;5.55;5.15;;;;;;;32.01;73.87;101196.97;5051227;28;70540;-32
2024/02/23 05:02:02;;;;;;;5.90;5.40;;;;;;;32.05;73.80;101197.34;5052933;28;66301;-31
2024/02/23 05:04:33;;;;;;;6.13;5.53;;;;;;;32.08;73.93;101187.94;5046711;28;70093;-32
2024/02/23 05:07:04;;;;;;;6.10;5.40;;;;;;;32.08;73.74;101177.06;5043948;28;66533;-30
2024/02/23 05:09:35;;;;;;;6.32;5.30;;;;;;;32.00;73.67;101162.72;5046659;28;69404;-31
2024/02/23 05:12:07;;;;;;;6.18;5.68;;;;;;;32.15;73.49;101181.41;5040527;28;66186;-31
2024/02/23 05:14:38;;;;;;;6.03;5.63;;;;;;;32.19;73.46;101179.06;5040905;28;70416;-31
2024/02/23 05:17:08;;;;;;;6.47;5.88;;;;;;;32.22;73.27;101171.31;5044287;28;65883;-31
2024/02/23 05:19:39;;;;;;;7.70;6.00;;;;;;;32.23;73.32;101166.69;5040218;28;70554;-31
2024/02/23 05:22:10;;;;;;;6.45;5.90;;;;;;;32.23;73.43;101151.28;5039608;28;66668;-31
2024/02/23 05:24:41;;;;;;;7.40;6.03;;;;;;;32.27;73.10;101157.06;5047176;28;70639;-31
2024/02/23 05:27:11;;;;;;;7.05;5.97;;;;;;;32.32;73.29;101161.81;5043733;28;65657;-31
2024/02/23 05:29:42;;;;;;;5.85;5.45;;;;;;;32.34;73.15;101157.81;5062317;28;70394;-31
2024/02/23 05:32:12;;;;;;;6.07;5.57;;;;;;;32.36;72.96;101146.75;5049160;28;65422;-32
2024/02/23 05:34:43;;;;;;;7.55;6.22;;;;;;;32.38;72.89;101134.63;5052702;28;69555;-31
2024/02/23 05:37:13;;;;;;;5.93;5.53;;;;;;;32.38;72.99;101131.91;5048000;28;65819;-31
2024/02/23 05:39:45;;;;;;;6.07;5.65;;;;;;;32.42;73.08;101122.25;5045213;28;70394;-32
2024/02/23 05:42:16;;;;;;;6.55;5.95;;;;;;;32.47;72.59;101117.00;5051966;28;66171;-30
2024/02/23 05:44:48;;;;;;;6.03;5.43;;;;;;;32.51;72.77;101120.09;5043003;28;69768;-32
2024/02/23 05:47:18;;;;;;;8.60;5.65;;;;;;;32.53;72.55;101111.72;5055182;28;65717;-30
2024/02/23 05:49:50;;;;;;;6.13;5.65;;;;;;;32.57;72.48;101112.91;5039478;28;69253;-31
2024/02/23 05:52:21;;;;;;;5.82;5.43;;;;;;;32.59;72.79;101111.63;5043511;28;66030;-32
2024/02/23 05:54:51;;;;;;;5.55;5.15;;;;;;;32.61;72.44;101108.72;5043393;28;69418;-31
2024/02/23 05:57:22;;;;;;;6.03;5.60;;;;;;;32.61;72.61;101100.56;5042965;28;66672;-31
2024/02/23 05:59:53;;;;;;;6.05;5.45;;;;;;;32.68;72.33;101098.56;5042142;28;70776;-32
2024/02/23 06:02:25;;;;;;;5.60;5.20;;;;;;;32.53;72.40;101068.28;5043344;28;67090;-32
2024/02/23 06:04:55;;;;;;;;;;;;;;;32.64;72.14;101102.81;5050951;28;69678;-30
2024/02/23 06:07:28;;;;;;;5.72;5.22;;;;;;;32.78;72.17;101082.56;5051016;28;66784;-32
2024/02/23 06:09:59;;;;;;;6.20;5.70;;;;;;;32.80;71.84;101102.22;5060047;28;69190;-31
2024/02/23 06:12:30;;;;;;;6.13;5.63;;;;;;;32.81;71.89;101084.84;5059604;28;66379;-31
2024/02/23 06:15:00;;;;;;;5.30;5.00;;;;;;;32.84;72.48;101078.94;5061471;28;70279;-32
2024/02/23 06:17:31;;;;;;;5.80;5.03;;;;;;;32.88;72.01;101068.47;5052468;28;65243;-32
2024/02/23 06:20:03;;;;;;;6.13;5.03;;;;;;;32.87;71.91;101070.31;5057984;28;70321;-31
2024/02/23 06:22:36;;;;;;;5.95;5.50;;;;;;;32.91;71.72;101066.09;5061342;28;66689;-32
2024/02/23 06:25:06;;;;;;;6.00;5.13;;;;;;;32.92;71.92;101062.31;5055177;28;70154;-32
2024/02/23 06:27:37;;;;;;;5.72;5.32;;;;;;;32.97;71.95;101064.34;5060460;28;65824;-30
2024/02/23 06:30:08;;;;;;;5.50;5.00;;;;;;;32.97;71.59;101058.94;5060005;28;70658;-33
2024/02/23 06:32:39;;;;;;;5.15;4.75;;;;;;;33.01;71.61;101060.13;5050711;28;65178;-31
2024/02/23 06:35:11;;;;;;;5.45;5.05;;;;;;;33.03;71.48;101052.59;5042048;28;70287;-32
2024/02/23 06:37:42;;;;;;;8.23;4.57;;;;;;;33.09;71.64;101045.41;5053016;28;65715;-32
2024/02/23 06:40:12;;;;;;;7.38;4.80;;;;;;;33.11;71.44;101043.28;5054215;28;69683;-35
2024/02/23 06:42:43;;;;;;;5.90;4.43;;;;;;;33.13;71.42;101036.56;5057366;28;66569;-32
2024/02/23 06:45:13;;;;;;;6.10;5.00;;;;;;;33.16;71.36;101035.28;5053724;28;70167;-33
2024/02/23 06:47:45;;;;;;;5.65;5.10;;;;;;;33.19;71.35;101028.53;5047161;28;66830;-31
2024/02/23 06:50:16;;;;;;;5.55;5.15;;;;;;;33.22;71.31;101028.91;5043746;28;69296;-32
2024/02/23 06:52:48;;;;;;;4.93;4.53;;;;;;;33.25;71.24;101017.56;5053652;28;66244;-32
2024/02/23 06:55:18;;;;;;;4.95;4.60;;;;;;;33.28;71.13;101010.81;5050279;28;69789;-32
2024/02/23 06:57:49;;;;;;;4.70;4.40;;;;;;;33.30;71.29;101009.53;5048951;28;66798;-32
2024/02/23 07:00:21;;;;;;;4.82;4.53;;;;;;;33.32;71.20;101001.97;5042496;28;70453;-31
2024/02/23 07:02:52;;;;;;;4.40;4.10;;;;;;;33.37;71.03;100998.53;5040983;28;65404;-32
2024/02/23 07:05:22;;;;;;;4.97;4.57;;;;;;;33.43;71.11;101004.94;5062905;28;69357;-32
2024/02/23 07:07:56;;;;;;;4.47;4.10;;;;;;;33.45;70.94;100994.66;5046564;28;65868;-31
2024/02/23 07:10:27;;;;;;;4.93;4.53;;;;;;;33.49;70.76;100995.81;5045445;28;70268;-31
2024/02/23 07:12:58;;;;;;;4.75;4.45;;;;;;;33.50;70.75;100984.72;5056492;28;65406;-30
2024/02/23 07:15:29;;;;;;;3.92;3.63;;;;;;;33.52;70.63;100979.06;5048311;28;69984;-30
2024/02/23 07:18:00;;;;;;;4.43;3.92;;;;;;;33.58;70.48;100983.59;5050417;28;65216;-32
2024/02/23 07:20:30;;;;;;;4.95;4.47;;;;;;;33.57;70.42;100976.47;5051550;28;69355;-31
2024/02/23 07:23:01;;;;;;;4.82;4.47;;;;;;;33.65;70.54;100973.41;5049277;28;66185;-31
2024/02/23 07:25:32;;;;;;;4.25;3.95;;;;;;;33.69;70.45;100969.16;5044281;28;70068;-31
2024/02/23 07:28:02;;;;;;;3.70;3.40;;;;;;;33.74;70.25;100961.09;5059712;28;66168;-32
2024/02/23 07:30:34;;;;;;;4.18;3.88;;;;;;;33.75;70.21;100954.59;5058856;28;69969;-31
2024/02/23 07:33:05;;;;;;;3.80;3.50;;;;;;;33.77;69.97;100947.03;5054538;28;66109;-31
2024/02/23 07:35:36;;;;;;;5.93;4.13;;;;;;;33.88;69.98;100960.81;5053152;28;70063;-31
2024/02/23 07:38:06;;;;;;;4.03;3.72;;;;;;;33.91;70.20;100952.22;5058713;28;66211;-31
2024/02/23 07:40:37;;;;;;;3.90;3.60;;;;;;;33.95;69.84;100956.91;5036219;28;69268;-31
2024/02/23 07:43:07;;;;;;;3.63;3.42;;;;;;;34.00;70.08;100948.88;5050369;28;65927;-32
2024/02/23 07:45:38;;;;;;;4.38;3.80;;;;;;;34.05;69.66;100945.47;5045628;28;69698;-31
2024/02/23 07:48:09;;;;;;;3.40;3.07;;;;;;;34.11;69.98;100955.38;5058945;28;65990;-31
2024/02/23 07:50:39;;;;;;;3.88;3.58;;;;;;;34.17;69.62;100948.16;5062313;28;70115;-31
2024/02/23 07:53:10;;;;;;;4.20;3.80;;;;;;;34.21;69.18;100939.28;5059386;28;65820;-31
2024/02/23 07:55:40;;;;;;;4.57;3.40;;;;;;;34.25;69.55;100937.69;5057555;28;70113;-31
2024/02/23 07:58:11;;;;;;;3.72;3.33;;;;;;;34.28;69.08;100936.41;5041833;28;65630;-31
2024/02/23 08:00:42;;;;;;;4.47;3.47;;;;;;;34.36;69.06;100935.19;5046340;28;70069;-33
2024/02/23 08:03:12;;;;;;;3.85;3.28;;;;;;;34.29;69.26;100920.88;5050215;28;65245;-31
2024/02/23 08:05:43;;;;;;;3.20;3.00;;;;;;;34.46;69.16;100940.81;5052733;28;68756;-32
2024/02/23 08:08:13;;;;;;;4.30;3.20;;;;;;;34.53;68.78;100940.69;5055778;28;65535;-31
2024/02/23 08:10:44;;;;;;;7.38;3.53;;;;;;;34.58;68.48;100929.91;5059696;28;70604;-31
2024/02/23 08:13:17;;;;;;;3.90;3.60;;;;;;;34.60;68.90;100925.03;5054154;28;66151;-31
2024/02/23 08:15:48;;;;;;;4.40;3.40;;;;;;;34.68;68.14;100927.34;5059794;28;69824;-33
2024/02/23 08:18:18;;;;;;;3.60;3.28;;;;;;;34.75;68.14;100929.94;5053315;28;65723;-32
2024/02/23 08:20:53;;;;;;;3.70;3.40;;;;;;;34.80;68.16;100927.28;5058283;28;70804;-31
2024/02/23 08:23:24;;;;;;;3.70;3.03;;;;;;;34.86;68.37;100923.59;5056775;28;66698;-32
2024/02/23 08:26:00;;;;;;;3.63;3.17;;;;;;;34.91;68.18;100920.97;5056894;28;70086;-32
2024/02/23 08:28:30;;;;;;;6.18;3.00;;;;;;;34.97;67.49;100919.13;5057269;28;65420;-32
2024/02/23 08:31:01;;;;;;;7.72;2.85;;;;;;;35.03;68.05;100923.59;5052606;28;70385;-33
2024/02/23 08:33:32;;;;;;;19.63;3.30;;;;;;;35.07;67.34;100920.13;5048381;28;67069;-33
2024/02/23 08:36:05;;;;;;;3.92;3.47;;;;;;;35.13;67.78;100912.88;5054703;28;70034;-32
2024/02/23 08:38:35;;;;;;;3.30;2.90;;;;;;;35.05;67.26;100895.00;5056972;28;66318;-32
2024/02/23 08:41:06;;;;;;;3.55;3.25;;;;;;;35.25;67.58;100915.53;5048455;28;69964;-34
2024/02/23 08:43:36;;;;;;;5.60;3.22;;;;;;;35.31;67.09;100909.06;5050952;28;65724;-34
2024/02/23 08:46:07;;;;;;;6.65;2.58;;;;;;;35.24;66.85;100892.03;5043576;28;69669;-34
2024/02/23 08:48:38;;;;;;;3.75;3.25;;;;;;;35.44;67.05;100914.19;5034094;28;65961;-31
2024/02/23 08:51:09;;;;;;;3.35;2.85;;;;;;;35.51;66.94;100920.25;5052867;28;70192;-32
2024/02/23 08:53:40;;;;;;;4.10;2.72;;;;;;;35.56;66.95;100917.63;5059100;28;66342;-32
2024/02/23 08:56:11;;;;;;;3.97;2.78;;;;;;;35.62;66.17;100917.72;5043220;28;68269;-32
2024/02/23 08:58:42;;;;;;;3.70;2.70;;;;;;;35.69;66.48;100910.16;5058844;28;65772;-31
2024/02/23 09:01:12;;;;;;;4.70;2.75;;;;;;;35.75;65.82;100915.44;5056295;28;70445;-32
2024/02/23 09:03:43;;;;;;;3.83;2.53;;;;;;;35.71;65.95;100902.53;5053165;28;65271;-32
2024/02/23 09:06:14;;;;;;;3.22;2.38;;;;;;;35.87;65.82;100922.69;5047549;28;69736;-33
2024/02/23 09:08:45;;;;;;;4.72;2.83;;;;;;;35.93;66.07;100924.38;5053409;28;66008;-33
2024/02/23 09:11:15;;;;;;;2.50;2.30;;;;;;;36.00;65.19;100928.59;5060415;28;70798;-36
2024/02/23 09:13:47;;;;;;;3.33;3.00;;;;;;;36.06;65.19;100921.31;5058786;28;66536;-34
2024/02/23 09:16:18;;;;;;;2.72;2.42;;;;;;;36.13;64.94;100921.09;5057408;28;70303;-33
2024/02/23 09:18:49;;;;;;;4.10;2.78;;;;;;;36.02;64.09;100909.19;5057771;28;66438;-35
2024/02/23 09:21:19;;;;;;;3.80;2.72;;;;;;;36.06;64.29;100920.50;5058695;28;69931;-33
2024/02/23 09:23:50;;;;;;;4.43;2.88;;;;;;;36.06;64.35;100920.50;5054584;28;66417;-32
2024/02/23 09:26:20;;;;;;;3.60;2.95;;;;;;;36.09;64.05;100909.06;5064423;28;69300;-34
2024/02/23 09:28:51;;;;;;;5.90;2.90;;;;;;;36.11;63.85;100912.34;5058777;28;65557;-34
2024/02/23 09:31:21;;;;;;;8.95;2.92;;;;;;;36.17;64.31;100919.53;5040764;28;69427;-33
2024/02/23 09:33:52;;;;;;;3.15;2.55;;;;;;;36.18;64.58;100919.25;5050947;28;66945;-33
2024/02/23 09:36:23;;;;;;;3.50;3.10;;;;;;;36.19;63.97;100920.94;5059404;28;70011;-33
2024/02/23 09:38:53;;;;;;;4.78;2.55;;;;;;;36.13;63.13;100929.28;5053878;28;66504;-33
2024/02/23 09:41:24;;;;;;;5.97;3.10;;;;;;;36.25;64.26;100930.00;5042275;28;70022;-32
2024/02/23 09:44:01;;;;;;;4.82;3.67;;;;;;;36.01;62.81;100892.00;5043973;28;67493;-32
2024/02/23 09:46:32;;;;;;;6.25;3.58;;;;;;;36.28;63.36;100928.66;5043330;28;69875;-32
2024/02/23 09:49:03;;;;;;;19.27;8.25;;;;;;;36.38;64.21;100921.38;5044274;28;67436;-33
2024/02/23 09:51:36;;;;;;;6.53;5.20;;;;;;;36.37;64.02;100916.19;5043694;28;69806;-33
2024/02/23 09:54:07;;;;;;;8.65;5.05;;;;;;;36.37;63.19;100932.59;5043603;28;65869;-32
2024/02/23 09:56:39;;;;;;;13.18;4.28;;;;;;;36.45;63.83;100934.84;5045002;28;69974;-32
2024/02/23 09:59:10;;;;;;;8.35;4.28;;;;;;;36.49;63.26;100935.97;5045077;28;66081;-32
2024/02/23 10:01:41;;;;;;;8.03;4.20;;;;;;;36.46;62.70;100934.56;5048662;28;70595;-32
2024/02/23 10:04:12;;;;;;;7.30;3.90;;;;;;;36.52;62.31;100934.63;5054715;28;66125;-32
2024/02/23 10:06:42;;;;;;;6.28;4.35;;;;;;;36.54;63.23;100935.25;5055781;28;69734;-32
2024/02/23 10:09:14;;;;;;;16.50;4.60;;;;;;;36.66;63.91;100941.38;5054148;28;65757;-33
2024/02/23 10:11:45;;;;;;;23.17;4.45;;;;;;;36.71;63.32;100941.41;5058161;28;69841;-33
2024/02/23 10:14:16;;;;;;;13.27;3.78;;;;;;;36.74;62.99;100935.44;5052383;28;66093;-32
2024/02/23 10:16:48;;;;;;;6.70;3.45;;;;;;;36.73;63.33;100942.00;5052986;28;70301;-32
2024/02/23 10:19:19;;;;;;;9.20;3.47;;;;;;;36.81;63.61;100949.72;5052508;28;65595;-31
2024/02/23 10:21:49;;;;;;;6.30;3.70;;;;;;;36.80;63.00;100947.22;5054575;28;70564;-31
2024/02/23 10:24:20;;;;;;;6.57;3.40;;;;;;;36.83;62.93;100947.56;5050815;28;66641;-33
2024/02/23 10:26:52;;;;;;;7.25;3.67;;;;;;;36.82;62.82;100951.34;5054842;28;70277;-33
2024/02/23 10:29:24;;;;;;;9.50;3.17;;;;;;;36.80;62.73;100953.53;5048856;28;65961;-33
2024/02/23 10:31:58;;;;;;;5.85;3.63;;;;;;;36.69;62.45;100932.66;5052924;28;71048;-32
2024/02/23 10:34:31;;;;;;;5.30;3.47;;;;;;;36.85;63.22;100961.78;5048695;28;65783;-33
2024/02/23 10:37:06;;;;;;;6.80;3.40;;;;;;;36.71;62.74;100941.41;5075286;28;70462;-35
2024/02/23 10:39:40;;;;;;;5.53;3.50;;;;;;;36.81;62.43;100974.31;5052797;28;65812;-35
2024/02/23 10:42:12;;;;;;;4.35;3.47;;;;;;;36.82;62.52;100965.03;5055457;28;70433;-34
2024/02/23 10:44:43;;;;;;;5.13;3.40;;;;;;;36.81;62.53;100974.31;5052163;28;66769;-33
2024/02/23 10:47:14;;;;;;;6.40;3.35;;;;;;;36.78;62.86;100972.09;5061054;28;70033;-35
2024/02/23 10:49:46;;;;;;;7.57;3.60;;;;;;;36.75;62.66;100978.09;5053211;28;66443;-33
2024/02/23 10:52:18;;;;;;;7.00;3.45;;;;;;;36.57;62.69;100946.47;5051042;28;70226;-32
2024/02/23 10:54:51;;;;;;;5.07;3.80;;;;;;;36.55;63.27;100953.28;5052845;28;66310;-32
2024/02/23 10:57:22;;;;;;;4.20;3.47;;;;;;;36.62;63.25;100968.38;5045716;28;70693;-32
2024/02/23 10:59:54;;;;;;;6.78;3.80;;;;;;;36.63;62.88;100980.13;5044626;28;66384;-33
2024/02/23 11:02:29;;;;;;;4.47;3.58;;;;;;;36.57;63.43;100975.72;5054033;28;70671;-32
2024/02/23 11:05:01;;;;;;;4.65;3.10;;;;;;;36.54;63.28;100982.50;5043725;28;66286;-33
2024/02/23 11:07:33;;;;;;;5.78;4.03;;;;;;;36.43;63.67;100965.16;5054032;28;69919;-31
2024/02/23 11:10:05;;;;;;;5.75;3.65;;;;;;;36.33;63.20;100965.06;5050138;28;66482;-32
2024/02/23 11:12:36;;;;;;;6.60;3.78;;;;;;;36.52;63.75;101002.94;5057943;28;69584;-36
2024/02/23 11:15:08;;;;;;;7.38;4.18;;;;;;;36.44;63.77;101005.06;5058877;28;65682;-33
2024/02/23 11:17:39;;;;;;;4.05;3.67;;;;;;;36.43;64.00;101006.13;5048381;28;70612;-32
2024/02/23 11:20:15;;;;;;;4.13;3.42;;;;;;;36.24;63.27;100993.88;5046474;28;66121;-32
2024/02/23 11:22:59;;;;;;;3.95;3.65;;;;;;;36.22;64.04;100990.59;5046353;28;70769;-33
2024/02/23 11:25:34;;;;;;;10.00;4.20;;;;;;;36.29;63.65;101013.06;5045237;28;64547;-32
2024/02/23 11:28:05;;;;;;;5.20;3.90;;;;;;;36.24;64.19;101004.81;5048414;28;69011;-33
2024/02/23 11:30:36;;;;;;;4.60;3.90;;;;;;;36.20;64.15;101014.59;5054963;28;66197;-33
2024/02/23 11:33:09;;;;;;;5.15;4.40;;;;;;;36.14;63.86;101029.28;5051765;28;69830;-32
2024/02/23 11:35:49;;;;;;;5.05;4.55;;;;;;;35.91;64.41;100998.38;5040323;28;66340;-33
2024/02/23 11:38:21;;;;;;;7.13;4.28;;;;;;;36.07;63.89;101020.44;5049505;28;71047;-32
2024/02/23 11:40:52;;;;;;;6.63;4.57;;;;;;;35.95;64.59;101010.41;5055708;28;66170;-33